LPMA Informações do Aeroporto

Informações da Pista
Pista 05 Comprimento 9110 ft Largura 148 ft
Elevação 147 ft Limite 480 ft Heading 45
Pista 23 Comprimento 9110 ft Largura 148 ft
Elevação 192 ft Limite 490 ft Heading 225
Frequências do Aeroporto
Tipo APP Nome APP Frequência 119.2 MHZ
Tipo TWR Nome TWR Frequência 118.35 MHZ
Navaids do Aeroporto
Tipo VOR-DME Nome Madeira Frequência 112200 KHZ
Tipo NDB Nome Madeira Frequência 318 KHZ
Informações meteorológicas do aeroporto e NOTAM
ADDS - METARS form results

(1305 UTC 19 July 2019)
Data provider http://aviationweather.gov/metar/data/
 
METAR text: LPMA 191300Z 02014G24KT 330V050 9999 SCT016 25/16 Q1020
Conditions at: LPMA (FUNCHAL/MADEIRA , PT) observed 1300 UTC 19 July 2019
Temperature: 25.0°C (77°F)
Dewpoint: 16.0°C (61°F) [RH = 57%]
Pressure (altimeter): 30.12 inches Hg (1020.0 mb)
Winds: from the NNE (20 degrees) at 16 MPH (14 knots; 7.2 m/s)
gusting to 28 MPH (24 knots; 12.3 m/s)
Visibility: 6 or more miles (10+ km)
Ceiling: at least 12,000 feet AGL
Clouds: scattered clouds at 1600 feet AGL
Weather: no significant weather observed at this time

METAR text: LPMA 191230Z 02014G25KT 310V050 9999 SCT016 25/16 Q1020
Conditions at: LPMA (FUNCHAL/MADEIRA , PT) observed 1230 UTC 19 July 2019
Temperature: 25.0°C (77°F)
Dewpoint: 16.0°C (61°F) [RH = 57%]
Pressure (altimeter): 30.12 inches Hg (1020.0 mb)
Winds: from the NNE (20 degrees) at 16 MPH (14 knots; 7.2 m/s)
gusting to 29 MPH (25 knots; 12.9 m/s)
Visibility: 6 or more miles (10+ km)
Ceiling: at least 12,000 feet AGL
Clouds: scattered clouds at 1600 feet AGL
Weather: no significant weather observed at this time

Forecast for: LPMA (FUNCHAL/MADEIRA , PT)
Text: TAF LPMA 191100Z 1912/2012 02015KT 9999 SCT015
Forecast period: 1200 UTC 19 July 2019 to 1200 UTC 20 July 2019
Forecast type: FROM: standard forecast or significant change
Winds: from the NNE (20 degrees) at 17 MPH (15 knots; 7.7 m/s)
Visibility: 6 or more miles 10+ km)
Ceiling: at least 12,000 feet AGL
Clouds: scattered clouds at 1500 feet AGL
Weather: no significant weather forecast for this period
Text: TEMPO 1912/2012 01020G30KT BKN015
Forecast period: 1200 UTC 19 July 2019 to 1200 UTC 20 July 2019
Forecast type: TEMPORARY: The following changes expected for less than half the time period
Winds: from the N (10 degrees) at 23 MPH (20 knots; 10.3 m/s)
gusting to 34 MPH (30 knots; 15.4 m/s)
Visibility: missing
Ceiling: 1500 feet AGL
Clouds: broken clouds at 1500 feet AGL
Weather: no significant weather forecast for this period